Time;durP1;ratioP1;P1;durP2;ratioP2;P2;SDS_P1;SDS_P2;PMS_P1;PMS_P2;Temp;Humidity;BMP_temperature;BMP_pressure;BME280_temperature;BME280_humidity;BME280_pressure;Samples;Min_cycle;Max_cycle;Signal;HPM_P1;HPM_P2
2022/03/28 00:00:47;;;;;;;15.40;5.60;;;;;;;4.50;59.91;97522.19;5116674;28;20057;-64
2022/03/28 00:03:12;;;;;;;10.23;5.88;;;;;;;4.48;60.30;97508.38;5116810;28;20098;-63
2022/03/28 00:05:39;;;;;;;9.23;5.35;;;;;;;4.51;59.90;97526.50;5116674;28;20433;-64
2022/03/28 00:08:06;;;;;;;11.85;6.28;;;;;;;4.43;59.55;97515.28;5116682;28;20066;-63
2022/03/28 00:10:31;;;;;;;12.45;6.90;;;;;;;4.38;59.97;97519.56;5116554;28;20430;-63
2022/03/28 00:12:57;;;;;;;7.25;5.20;;;;;;;4.25;59.68;97518.69;5116538;28;20015;-63
2022/03/28 00:15:23;;;;;;;13.43;7.28;;;;;;;4.25;59.51;97522.13;5116472;28;20143;-63
2022/03/28 00:17:48;;;;;;;10.50;5.70;;;;;;;4.21;60.12;97519.53;5116537;28;20065;-63
2022/03/28 00:20:14;;;;;;;12.02;5.53;;;;;;;4.04;60.25;97520.34;5116412;28;20035;-63
2022/03/28 00:22:41;;;;;;;9.35;5.97;;;;;;;3.82;61.39;97509.88;5116400;28;20381;-63
2022/03/28 00:25:08;;;;;;;11.23;5.20;;;;;;;3.86;61.12;97514.22;5116268;27;20092;-63
2022/03/28 00:27:34;;;;;;;9.07;5.32;;;;;;;3.82;60.75;97509.03;5116193;28;20026;-63
2022/03/28 00:30:00;;;;;;;7.80;5.50;;;;;;;3.71;60.90;97506.38;5116401;28;20032;-63
2022/03/28 00:32:25;;;;;;;13.23;5.68;;;;;;;3.62;61.16;97507.22;5116275;28;20024;-63
2022/03/28 00:34:51;;;;;;;16.17;6.20;;;;;;;3.44;62.66;97500.19;5116325;28;20027;-63
2022/03/28 00:37:17;;;;;;;9.07;5.32;;;;;;;3.48;62.52;97508.00;5116112;28;20426;-63
2022/03/28 00:39:42;;;;;;;9.35;4.88;;;;;;;3.57;62.22;97508.88;5115946;28;20032;-64
2022/03/28 00:42:08;;;;;;;10.40;5.25;;;;;;;3.57;61.84;97504.59;5115780;28;20401;-63
2022/03/28 00:44:34;;;;;;;16.40;5.43;;;;;;;3.58;61.53;97508.06;5115915;28;20020;-64
2022/03/28 00:47:00;;;;;;;18.23;6.13;;;;;;;3.47;61.90;97508.88;5116077;28;20153;-63
2022/03/28 00:49:26;;;;;;;9.93;5.50;;;;;;;3.39;62.24;97503.63;5115252;28;20042;-63
2022/03/28 00:51:52;;;;;;;10.45;5.53;;;;;;;3.27;62.88;97504.41;5114985;28;20473;-64
2022/03/28 00:54:18;;;;;;;10.50;5.18;;;;;;;3.30;62.44;97493.22;5115878;28;20030;-63
2022/03/28 00:56:46;;;;;;;10.48;5.28;;;;;;;3.28;62.04;97503.56;5115734;27;20024;-63
2022/03/28 00:59:12;;;;;;;9.45;5.78;;;;;;;3.31;62.01;97509.63;5115604;28;20151;-63
2022/03/28 01:01:38;;;;;;;9.85;5.50;;;;;;;3.21;62.54;97511.25;5115609;28;20040;-63
2022/03/28 01:04:08;;;;;;;13.68;4.78;;;;;;;3.23;63.18;97507.84;5115721;27;20055;-63
2022/03/28 01:06:37;;;;;;;8.68;5.38;;;;;;;3.20;62.84;97510.41;5115688;28;20028;-64
2022/03/28 01:09:05;;;;;;;17.63;5.53;;;;;;;3.22;63.07;97505.25;5115713;28;20038;-63
2022/03/28 01:11:35;;;;;;;11.05;5.60;;;;;;;3.20;62.36;97506.94;5115613;27;20350;-64
2022/03/28 01:14:01;;;;;;;10.07;5.00;;;;;;;2.97;62.56;97503.34;5115615;28;20026;-63
2022/03/28 01:16:31;;;;;;;12.15;5.53;;;;;;;2.96;63.08;97501.63;5115283;28;20494;-63
2022/03/28 01:18:57;;;;;;;11.98;5.45;;;;;;;2.85;63.25;97500.66;5115323;28;20031;-63
2022/03/28 01:21:22;;;;;;;13.00;6.15;;;;;;;2.85;63.08;97503.22;5115361;28;20024;-63
2022/03/28 01:23:48;;;;;;;11.63;6.03;;;;;;;2.81;64.01;97509.25;5115218;28;20072;-63
2022/03/28 01:26:15;;;;;;;11.88;6.05;;;;;;;2.79;64.62;97501.47;5115108;28;20024;-63
2022/03/28 01:28:41;;;;;;;12.00;5.47;;;;;;;2.81;64.64;97501.47;5115035;28;20015;-63
2022/03/28 01:31:10;;;;;;;10.10;5.55;;;;;;;2.82;64.15;97516.13;5115021;28;20019;-64
2022/03/28 01:33:36;;;;;;;9.93;5.30;;;;;;;2.90;64.04;97522.25;5115116;28;20022;-63
2022/03/28 01:36:02;;;;;;;13.27;5.63;;;;;;;2.95;64.11;97514.53;5115071;28;20111;-62
2022/03/28 01:38:27;;;;;;;9.32;5.63;;;;;;;3.00;63.67;97516.28;5114931;28;20055;-64
2022/03/28 01:40:53;;;;;;;8.02;5.43;;;;;;;2.93;62.87;97514.53;5114582;28;20093;-63
2022/03/28 01:43:20;;;;;;;13.68;5.70;;;;;;;2.84;63.43;97523.06;5114790;28;20081;-63
2022/03/28 01:45:46;;;;;;;10.10;5.28;;;;;;;2.81;63.55;97519.56;5114768;28;20058;-63
2022/03/28 01:48:12;;;;;;;11.23;5.20;;;;;;;2.67;63.44;97512.56;5114739;28;20031;-63
2022/03/28 01:50:39;;;;;;;8.10;5.25;;;;;;;2.61;64.02;97515.09;5114702;28;20020;-62
2022/03/28 01:53:05;;;;;;;8.98;5.75;;;;;;;2.47;64.23;97508.06;5114667;28;20094;-62
2022/03/28 01:55:31;;;;;;;12.73;6.03;;;;;;;2.36;64.79;97520.00;5114555;28;20016;-64
2022/03/28 01:57:57;;;;;;;8.50;5.80;;;;;;;2.36;64.88;97509.69;5114486;28;20042;-63
2022/03/28 02:00:25;;;;;;;15.80;5.80;;;;;;;2.33;64.79;97514.81;5114373;28;20504;-63
2022/03/28 02:02:52;;;;;;;8.90;5.47;;;;;;;2.19;65.02;97502.63;5113984;28;20015;-63
2022/03/28 02:05:18;;;;;;;12.38;6.10;;;;;;;2.12;65.48;97506.00;5114364;28;20477;-64
2022/03/28 02:07:46;;;;;;;8.52;5.15;;;;;;;2.10;65.86;97508.56;5114413;27;20031;-64
2022/03/28 02:10:17;;;;;;;9.00;6.03;;;;;;;2.12;65.94;97512.03;5114212;28;20031;-63
2022/03/28 02:12:43;;;;;;;23.38;11.73;;;;;;;2.13;66.40;97511.16;5114363;28;20059;-64
2022/03/28 02:15:10;;;;;;;12.35;6.90;;;;;;;2.04;65.91;97508.47;5114278;28;20106;-63
2022/03/28 02:17:39;;;;;;;13.38;5.78;;;;;;;2.02;65.82;97512.78;5114121;28;20073;-63
2022/03/28 02:20:08;;;;;;;11.32;5.47;;;;;;;2.02;65.82;97512.78;5114022;28;20028;-62
2022/03/28 02:22:35;;;;;;;12.68;5.90;;;;;;;2.05;65.87;97515.41;5114103;28;20026;-62
2022/03/28 02:25:01;;;;;;;8.57;5.85;;;;;;;2.01;65.37;97511.91;5114076;28;20015;-62
2022/03/28 02:27:27;;;;;;;9.93;6.35;;;;;;;1.84;66.51;97516.84;5114004;28;20027;-63
2022/03/28 02:29:53;;;;;;;10.93;5.60;;;;;;;1.74;66.75;97523.63;5112737;28;20061;-63
2022/03/28 02:32:18;;;;;;;16.10;5.90;;;;;;;1.67;67.65;97519.22;5113873;28;20020;-63
2022/03/28 02:34:44;;;;;;;10.55;6.15;;;;;;;1.60;67.34;97509.66;5113837;28;20023;-63
2022/03/28 02:37:09;;;;;;;12.70;5.55;;;;;;;1.53;68.47;97520.75;5113918;27;20030;-63
2022/03/28 02:39:35;;;;;;;11.73;6.35;;;;;;;1.55;68.49;97519.03;5113697;28;20107;-63
2022/03/28 02:42:01;;;;;;;12.32;5.93;;;;;;;1.61;68.30;97517.44;5113507;28;20066;-61
2022/03/28 02:44:26;;;;;;;20.92;7.50;;;;;;;1.56;67.75;97513.91;5113729;28;20470;-62
2022/03/28 02:46:52;;;;;;;13.02;6.55;;;;;;;1.54;68.20;97515.63;5113889;28;20382;-63
2022/03/28 02:49:20;;;;;;;9.80;6.03;;;;;;;1.61;68.67;97517.44;5113707;28;20425;-64
2022/03/28 02:51:47;;;;;;;15.98;6.68;;;;;;;1.61;68.87;97512.28;5113568;28;20027;-63
2022/03/28 02:54:13;;;;;;;10.93;6.70;;;;;;;1.54;69.08;97507.88;5113759;28;20019;-63
2022/03/28 02:56:38;;;;;;;13.05;6.78;;;;;;;1.54;68.64;97510.47;5113686;28;20020;-64
2022/03/28 02:59:04;;;;;;;14.50;5.85;;;;;;;1.54;68.84;97520.78;5113671;28;20427;-63
2022/03/28 03:01:30;;;;;;;11.68;6.25;;;;;;;1.60;67.81;97523.41;5113670;28;20354;-62
2022/03/28 03:03:56;;;;;;;11.93;6.72;;;;;;;1.64;68.60;97529.50;5113524;28;20545;-63
2022/03/28 03:06:21;;;;;;;15.65;6.50;;;;;;;1.64;68.56;97529.50;5113635;28;20142;-63
2022/03/28 03:08:48;;;;;;;10.82;6.97;;;;;;;1.68;68.64;97526.09;5113535;28;20059;-64
2022/03/28 03:11:14;;;;;;;11.27;7.00;;;;;;;1.70;67.90;97526.13;5113647;28;20031;-63
2022/03/28 03:13:39;;;;;;;9.65;6.47;;;;;;;1.72;68.42;97529.59;5114584;28;20019;-63
2022/03/28 03:16:05;;;;;;;13.93;6.63;;;;;;;1.74;68.58;97536.50;5117673;28;20604;-63
2022/03/28 03:18:31;;;;;;;11.85;6.30;;;;;;;1.72;68.35;97539.94;5117762;28;20516;-63
2022/03/28 03:20:58;;;;;;;11.63;6.90;;;;;;;1.72;68.39;97545.09;5117466;28;20153;-64
2022/03/28 03:23:24;;;;;;;13.52;6.85;;;;;;;1.63;69.38;97538.09;5117532;27;20027;-63
2022/03/28 03:25:49;;;;;;;14.60;6.78;;;;;;;1.50;69.39;97543.06;5117428;28;20529;-63
2022/03/28 03:28:16;;;;;;;11.55;6.75;;;;;;;1.54;69.68;97543.13;5117475;28;20153;-63
2022/03/28 03:30:42;;;;;;;11.40;6.80;;;;;;;1.58;69.11;97552.63;5117491;27;20028;-63
2022/03/28 03:33:08;;;;;;;15.60;7.35;;;;;;;1.38;69.60;97551.50;5117364;28;20599;-63
2022/03/28 03:35:34;;;;;;;13.20;7.20;;;;;;;1.44;70.71;97553.28;5117386;28;20019;-63
2022/03/28 03:38:00;;;;;;;11.05;7.15;;;;;;;1.47;70.41;97550.75;5117383;28;20016;-63
2022/03/28 03:40:25;;;;;;;13.45;7.38;;;;;;;1.42;69.89;97559.28;5116906;28;20485;-63
2022/03/28 03:42:51;;;;;;;14.43;7.25;;;;;;;1.41;69.50;97560.13;5117161;28;20032;-63
2022/03/28 03:45:17;;;;;;;20.73;7.15;;;;;;;1.38;69.29;97548.91;5117290;28;20069;-63
2022/03/28 03:47:43;;;;;;;14.70;7.60;;;;;;;1.28;69.59;97557.38;5117216;27;20509;-63
2022/03/28 03:50:10;;;;;;;14.70;7.53;;;;;;;1.32;69.87;97555.72;5117005;28;20469;-63
2022/03/28 03:52:36;;;;;;;14.93;7.95;;;;;;;1.32;70.01;97561.72;5116884;28;20138;-63
2022/03/28 03:55:02;;;;;;;12.25;7.03;;;;;;;1.32;69.75;97568.59;5116927;28;20445;-63
2022/03/28 03:57:28;;;;;;;15.27;7.68;;;;;;;1.18;70.14;97563.22;5116949;28;20016;-63
2022/03/28 03:59:53;;;;;;;18.48;8.07;;;;;;;1.12;70.38;97566.56;5116950;28;20020;-63
2022/03/28 04:02:19;;;;;;;19.05;8.38;;;;;;;1.11;70.69;97567.38;5116840;28;20458;-63
2022/03/28 04:04:45;;;;;;;16.58;8.43;;;;;;;1.10;70.74;97568.25;5115476;28;20032;-63
2022/03/28 04:07:10;;;;;;;15.30;8.63;;;;;;;1.11;70.75;97575.13;5116622;28;20027;-63
2022/03/28 04:09:36;;;;;;;13.50;7.85;;;;;;;1.15;71.04;97576.94;5116542;28;20073;-63
2022/03/28 04:12:02;;;;;;;11.85;7.60;;;;;;;1.24;70.54;97583.94;5116657;28;20073;-63
2022/03/28 04:14:28;;;;;;;12.80;8.50;;;;;;;1.28;70.05;97587.44;5116569;28;20032;-63
2022/03/28 04:16:53;;;;;;;15.93;8.55;;;;;;;1.24;69.95;97586.53;5116472;28;20020;-63
2022/03/28 04:19:19;;;;;;;13.50;7.38;;;;;;;1.28;71.16;97590.00;5116457;28;20531;-63
2022/03/28 04:21:46;;;;;;;16.10;8.32;;;;;;;1.30;70.58;97591.78;5116425;28;20016;-63
2022/03/28 04:24:12;;;;;;;11.18;7.70;;;;;;;1.33;70.22;97589.25;5116079;28;20054;-63
2022/03/28 04:26:37;;;;;;;15.48;8.65;;;;;;;1.38;70.22;97599.63;5116464;27;20047;-63
2022/03/28 04:29:04;;;;;;;17.20;9.23;;;;;;;1.37;70.38;97605.63;5116226;28;20522;-63
2022/03/28 04:31:30;;;;;;;14.73;8.63;;;;;;;1.40;71.39;97597.94;5116369;28;20440;-63
2022/03/28 04:33:56;;;;;;;14.55;8.93;;;;;;;1.35;70.83;97595.28;5116128;28;20062;-63
2022/03/28 04:36:23;;;;;;;18.27;10.35;;;;;;;1.36;71.18;97604.75;5116314;28;20095;-63
2022/03/28 04:38:49;;;;;;;16.33;9.48;;;;;;;1.45;71.45;97601.47;5116297;28;20472;-63
2022/03/28 04:41:15;;;;;;;16.17;9.20;;;;;;;1.57;71.26;97603.38;5115718;28;20043;-63
2022/03/28 04:43:41;;;;;;;14.32;8.40;;;;;;;1.63;70.58;97600.00;5116029;28;20034;-63
2022/03/28 04:46:07;;;;;;;14.45;8.77;;;;;;;1.67;71.12;97600.91;5116025;28;20095;-63
2022/03/28 04:48:33;;;;;;;17.20;8.50;;;;;;;1.82;71.25;97598.56;5116064;28;20032;-63
2022/03/28 04:50:59;;;;;;;14.63;9.05;;;;;;;2.26;71.14;97594.78;5115799;28;20015;-63
2022/03/28 04:53:25;;;;;;;9.32;7.30;;;;;;;2.91;69.28;97604.09;5115838;28;20420;-63
2022/03/28 04:55:51;;;;;;;20.08;7.95;;;;;;;3.48;66.36;97605.44;5115935;28;20062;-63
2022/03/28 04:58:18;;;;;;;12.38;6.50;;;;;;;4.10;64.39;97610.13;5115791;28;20069;-63
2022/03/28 05:00:43;;;;;;;16.33;8.30;;;;;;;4.77;61.94;97613.84;5115604;28;20027;-63
2022/03/28 05:03:09;;;;;;;13.98;7.35;;;;;;;5.45;60.60;97612.19;5115640;28;20408;-63
2022/03/28 05:05:34;;;;;;;13.38;7.13;;;;;;;6.09;57.83;97608.66;5115504;28;20099;-64
2022/03/28 05:08:00;;;;;;;16.30;7.32;;;;;;;6.74;55.90;97617.94;5115616;28;20019;-64
2022/03/28 05:10:26;;;;;;;12.35;7.03;;;;;;;7.49;54.02;97622.63;5115683;28;20019;-64
2022/03/28 05:12:51;;;;;;;15.77;7.10;;;;;;;8.16;52.35;97617.63;5115466;28;20015;-63
2022/03/28 05:15:17;;;;;;;15.05;6.82;;;;;;;8.79;50.75;97627.34;5115448;28;20024;-63
2022/03/28 05:17:43;;;;;;;15.60;6.60;;;;;;;9.35;49.38;97623.94;5115227;28;20358;-63
2022/03/28 05:20:10;;;;;;;14.23;6.70;;;;;;;9.94;48.29;97629.94;5115259;28;20028;-63
2022/03/28 05:22:35;;;;;;;12.25;7.32;;;;;;;10.50;46.36;97626.28;5115236;28;20485;-63
2022/03/28 05:25:02;;;;;;;14.55;7.28;;;;;;;11.05;46.26;97623.34;5115243;28;20058;-64
2022/03/28 05:27:28;;;;;;;11.38;6.45;;;;;;;11.78;45.03;97614.66;5115234;28;20036;-63
2022/03/28 05:29:54;;;;;;;18.92;6.95;;;;;;;12.37;43.54;97615.72;5115188;28;20381;-63
2022/03/28 05:32:19;;;;;;;10.65;7.03;;;;;;;12.87;42.08;97612.56;5115007;28;20107;-64
2022/03/28 05:34:46;;;;;;;15.48;6.63;;;;;;;13.31;41.77;97620.88;5115029;28;20473;-64
2022/03/28 05:37:14;;;;;;;9.18;6.47;;;;;;;13.39;41.08;97622.34;5114274;28;20073;-64
2022/03/28 05:39:40;;;;;;;14.00;5.45;;;;;;;13.96;39.86;97621.38;5114951;28;20020;-64
2022/03/28 05:42:07;;;;;;;18.10;6.60;;;;;;;14.57;39.42;97613.97;5114711;28;20110;-64
2022/03/28 05:44:33;;;;;;;13.77;5.90;;;;;;;15.21;37.26;97608.09;5114810;28;20366;-64
2022/03/28 05:46:59;;;;;;;9.10;6.03;;;;;;;15.79;37.38;97614.53;5114877;28;20024;-64
2022/03/28 05:49:24;;;;;;;11.70;5.95;;;;;;;16.16;35.48;97604.19;5114748;28;20076;-64
2022/03/28 05:51:51;;;;;;;11.10;5.78;;;;;;;16.36;33.97;97611.25;5114695;28;20087;-64
2022/03/28 05:54:17;;;;;;;14.88;5.82;;;;;;;16.78;35.19;97609.38;5114506;28;20098;-64
2022/03/28 05:56:43;;;;;;;9.20;5.15;;;;;;;17.30;34.91;97621.06;5114630;28;20099;-64
2022/03/28 05:59:08;;;;;;;11.60;5.80;;;;;;;17.58;32.86;97618.84;5114538;28;20098;-64
2022/03/28 06:01:35;;;;;;;9.35;5.47;;;;;;;17.87;33.90;97615.69;5114591;28;20027;-64
2022/03/28 06:04:01;;;;;;;12.50;6.53;;;;;;;18.46;32.45;97619.78;5114530;28;20047;-64
2022/03/28 06:06:27;;;;;;;11.20;6.88;;;;;;;18.89;30.17;97620.13;5114211;28;20063;-64
2022/03/28 06:08:55;;;;;;;14.68;6.95;;;;;;;18.63;30.14;97621.53;5114428;28;20634;-64
2022/03/28 06:11:21;;;;;;;10.10;6.15;;;;;;;18.48;31.89;97621.41;5114281;28;20067;-64
2022/03/28 06:13:46;;;;;;;13.77;7.50;;;;;;;18.48;30.90;97621.41;5114243;28;20100;-64
2022/03/28 06:16:12;;;;;;;13.50;6.80;;;;;;;18.68;30.73;97623.00;5114236;28;20485;-64
2022/03/28 06:18:38;;;;;;;14.05;7.28;;;;;;;18.72;30.93;97617.53;5114080;28;20023;-64
2022/03/28 06:21:03;;;;;;;24.02;7.20;;;;;;;17.86;32.33;97627.22;5114089;28;20351;-64
2022/03/28 06:23:29;;;;;;;14.23;6.72;;;;;;;17.37;33.90;97629.56;5114296;28;20019;-64
2022/03/28 06:25:55;;;;;;;15.98;7.25;;;;;;;17.66;32.71;97629.06;5114049;28;20032;-64
2022/03/28 06:28:21;;;;;;;10.50;6.90;;;;;;;18.34;31.18;97627.44;5114104;28;20366;-64
2022/03/28 06:30:47;;;;;;;13.93;7.15;;;;;;;18.21;31.65;97629.03;5114114;28;20035;-64
2022/03/28 06:33:14;;;;;;;16.45;7.22;;;;;;;17.94;31.61;97628.53;5113980;28;20019;-64
2022/03/28 06:35:41;;;;;;;18.40;7.45;;;;;;;17.87;32.14;97626.25;5113842;28;20028;-64
2022/03/28 06:38:07;;;;;;;14.25;6.82;;;;;;;17.91;32.16;97636.63;5113900;28;20020;-64
2022/03/28 06:40:36;;;;;;;14.05;6.63;;;;;;;18.00;31.97;97634.47;5113705;28;20096;-64
2022/03/28 06:43:02;;;;;;;11.80;5.85;;;;;;;17.81;32.80;97633.59;5113995;28;20027;-64
2022/03/28 06:45:28;;;;;;;19.33;6.68;;;;;;;17.81;32.98;97623.00;5113746;28;20095;-64
2022/03/28 06:47:55;;;;;;;13.25;6.28;;;;;;;17.86;32.86;97624.56;5113582;28;20034;-64
2022/03/28 06:50:24;;;;;;;12.50;6.90;;;;;;;17.88;33.25;97617.41;5113746;28;20050;-64
2022/03/28 06:52:50;;;;;;;10.15;6.75;;;;;;;17.85;32.58;97622.84;5113594;28;20433;-64
2022/03/28 06:55:16;;;;;;;18.50;7.13;;;;;;;17.83;31.56;97617.63;5113580;28;20122;-64
2022/03/28 06:57:42;;;;;;;19.17;6.43;;;;;;;17.98;31.56;97623.06;5113611;28;20119;-64
2022/03/28 07:00:10;;;;;;;15.40;6.68;;;;;;;18.28;31.73;97615.38;5113643;28;20119;-64
2022/03/28 07:02:37;;;;;;;13.68;6.93;;;;;;;18.46;30.77;97612.69;5113548;28;20024;-64
2022/03/28 07:05:07;;;;;;;14.23;6.63;;;;;;;18.28;32.24;97615.38;5113605;28;20027;-64
2022/03/28 07:07:40;;;;;;;13.38;6.75;;;;;;;18.31;31.65;97615.19;5113562;28;20036;-64
2022/03/28 07:10:06;;;;;;;17.08;7.53;;;;;;;18.41;31.25;97607.66;5113551;28;20051;-64
2022/03/28 07:12:32;;;;;;;10.88;7.20;;;;;;;18.35;31.75;97605.31;5113379;28;20043;-64
2022/03/28 07:14:57;;;;;;;14.88;6.75;;;;;;;18.63;30.94;97606.47;5113411;28;20470;-64
2022/03/28 07:17:23;;;;;;;18.92;7.15;;;;;;;18.82;29.79;97602.84;5113495;28;20024;-64
2022/03/28 07:19:48;;;;;;;11.25;6.60;;;;;;;18.32;30.17;97610.75;5113141;28;20112;-64
2022/03/28 07:22:14;;;;;;;10.45;6.75;;;;;;;18.29;30.80;97602.97;5113359;28;20054;-64
2022/03/28 07:24:40;;;;;;;16.17;6.85;;;;;;;18.06;30.61;97613.81;5113420;28;20016;-64
2022/03/28 07:27:06;;;;;;;12.38;6.55;;;;;;;18.33;30.33;97612.47;5113446;28;20028;-64
2022/03/28 07:29:31;;;;;;;15.38;6.10;;;;;;;18.46;29.71;97606.53;5113266;28;20381;-64
2022/03/28 07:31:57;;;;;;;15.63;6.70;;;;;;;18.21;30.44;97605.19;5113286;28;20030;-64
2022/03/28 07:34:35;;;;;;;18.25;6.65;;;;;;;18.15;30.21;97606.38;5113188;28;20028;-64
2022/03/28 07:37:03;;;;;;;20.73;6.35;;;;;;;18.60;31.46;97593.38;5113297;28;20055;-64
2022/03/28 07:39:29;;;;;;;14.73;6.35;;;;;;;18.48;29.83;97596.72;5113106;28;20385;-65
2022/03/28 07:41:55;;;;;;;12.75;7.20;;;;;;;18.05;30.01;97600.66;5112998;28;20120;-65
2022/03/28 07:44:22;;;;;;;11.63;6.88;;;;;;;18.14;30.49;97594.91;5113174;28;20059;-65
2022/03/28 07:46:48;;;;;;;16.58;6.78;;;;;;;18.40;30.71;97590.06;5113054;28;20024;-65
2022/03/28 07:49:16;;;;;;;13.25;6.32;;;;;;;18.08;30.49;97587.25;5113120;28;20098;-65
2022/03/28 07:51:43;;;;;;;16.77;7.22;;;;;;;18.08;30.92;97584.59;5113094;28;20426;-65
2022/03/28 07:54:09;;;;;;;12.05;7.05;;;;;;;18.19;31.81;97590.22;5113073;28;20465;-65
2022/03/28 07:56:35;;;;;;;10.27;7.20;;;;;;;18.62;30.30;97583.56;5113035;28;20028;-65
2022/03/28 07:59:01;;;;;;;14.32;6.68;;;;;;;18.55;31.81;97587.50;5112962;28;20050;-65
2022/03/28 08:01:26;;;;;;;10.18;6.85;;;;;;;18.62;31.58;97583.56;5116818;27;20028;-65
2022/03/28 08:03:52;;;;;;;16.70;7.47;;;;;;;18.97;31.12;97579.94;5116781;28;20153;-65
2022/03/28 08:06:17;;;;;;;16.10;7.03;;;;;;;18.99;30.58;97583.34;5116797;28;20015;-65
2022/03/28 08:08:43;;;;;;;12.93;7.15;;;;;;;18.81;30.79;97587.84;5116815;27;20382;-65
2022/03/28 08:11:10;;;;;;;14.32;6.57;;;;;;;18.68;30.18;97580.59;5116643;28;20039;-64
2022/03/28 08:13:36;;;;;;;16.17;6.95;;;;;;;18.53;32.14;97582.28;5116735;28;20023;-65
2022/03/28 08:16:04;;;;;;;14.52;6.97;;;;;;;18.47;31.02;97577.31;5116574;28;20026;-65
2022/03/28 08:18:30;;;;;;;14.52;6.78;;;;;;;18.84;30.78;97578.91;5116603;28;20020;-65
2022/03/28 08:20:56;;;;;;;17.65;6.65;;;;;;;18.82;31.03;97568.38;5116453;28;20019;-65
2022/03/28 08:23:22;;;;;;;18.27;7.03;;;;;;;18.42;32.34;97569.63;5116321;28;20031;-65
2022/03/28 08:25:48;;;;;;;16.25;6.50;;;;;;;18.84;31.27;97566.47;5116387;28;20090;-65
2022/03/28 08:28:14;;;;;;;16.92;6.45;;;;;;;19.21;30.03;97566.25;5116395;27;20020;-65
2022/03/28 08:30:40;;;;;;;10.40;5.82;;;;;;;19.51;29.42;97559.28;5116426;28;20015;-64
2022/03/28 08:33:06;;;;;;;10.00;5.75;;;;;;;19.17;29.26;97559.41;5116332;28;20019;-65
2022/03/28 08:35:31;;;;;;;15.20;7.18;;;;;;;19.04;31.48;97559.22;5116304;28;20478;-65
2022/03/28 08:37:58;;;;;;;17.05;6.55;;;;;;;18.81;30.34;97562.22;5116178;28;20389;-64
2022/03/28 08:40:23;;;;;;;15.43;6.68;;;;;;;18.75;30.83;97551.13;5115820;28;20082;-65
2022/03/28 08:42:49;;;;;;;13.07;6.30;;;;;;;18.95;30.97;97550.00;5116049;28;20440;-64
2022/03/28 08:45:15;;;;;;;19.80;6.43;;;;;;;19.17;30.28;97539.06;5116119;28;20016;-65
2022/03/28 08:47:45;;;;;;;11.77;6.53;;;;;;;19.16;29.12;97544.44;5115947;28;20030;-65
2022/03/28 08:50:13;;;;;;;15.88;6.07;;;;;;;19.25;31.02;97548.34;5116018;28;20020;-65
2022/03/28 08:52:42;;;;;;;17.73;6.43;;;;;;;19.04;29.29;97543.31;5115969;28;20023;-64
2022/03/28 08:55:10;;;;;;;15.32;6.07;;;;;;;18.68;29.67;97545.28;5115805;28;20024;-64
2022/03/28 08:57:36;;;;;;;14.60;6.88;;;;;;;18.74;29.90;97538.78;5115833;28;20046;-64
2022/03/28 09:00:05;;;;;;;17.33;6.30;;;;;;;18.82;32.02;97539.22;5115714;28;20024;-64
2022/03/28 09:02:37;;;;;;;18.57;7.03;;;;;;;18.60;29.88;97536.91;5115729;28;20385;-64
2022/03/28 09:05:03;;;;;;;13.05;6.97;;;;;;;18.35;30.25;97533.81;5115671;28;20028;-64
2022/03/28 09:07:29;;;;;;;15.18;7.35;;;;;;;18.27;30.61;97539.50;5115420;28;20512;-64
2022/03/28 09:09:59;;;;;;;15.25;7.18;;;;;;;18.38;32.84;97531.00;5115496;28;20031;-65
2022/03/28 09:12:25;;;;;;;11.25;6.70;;;;;;;18.62;31.74;97533.25;5114378;28;20020;-65
2022/03/28 09:15:14;;;;;;;15.35;7.68;;;;;;;18.48;30.44;97526.03;5115431;28;20016;-65
2022/03/28 09:17:41;;;;;;;13.50;7.60;;;;;;;18.11;33.63;97520.94;5115381;28;20473;-65
2022/03/28 09:20:07;;;;;;;15.85;7.18;;;;;;;18.10;31.82;97519.25;5115219;28;20467;-65
2022/03/28 09:22:35;;;;;;;17.40;7.82;;;;;;;17.98;31.04;97519.84;5115510;28;20485;-64
2022/03/28 09:25:19;;;;;;;12.75;7.35;;;;;;;17.86;32.40;97516.06;5115210;28;20102;-65
2022/03/28 09:27:45;;;;;;;13.57;7.05;;;;;;;17.97;32.67;97513.69;5115214;28;20027;-64
2022/03/28 09:30:17;;;;;;;12.98;7.32;;;;;;;17.68;32.95;97510.78;5115053;28;20020;-64
2022/03/28 09:32:54;;;;;;;14.13;7.97;;;;;;;17.79;34.61;97504.94;5115085;28;20020;-64
2022/03/28 09:35:26;;;;;;;13.15;7.22;;;;;;;18.20;32.65;97509.00;5115246;28;20027;-65
2022/03/28 09:38:01;;;;;;;11.00;7.53;;;;;;;18.33;32.71;97506.53;5114997;27;20044;-65
2022/03/28 09:40:45;;;;;;;14.85;7.35;;;;;;;18.30;33.55;97502.28;5114621;27;20060;-65
2022/03/28 09:43:19;;;;;;;18.00;7.75;;;;;;;18.46;31.16;97497.94;5114973;28;20512;-64
2022/03/28 09:45:51;;;;;;;12.50;7.35;;;;;;;18.65;30.59;97487.16;5114848;28;20152;-65
2022/03/28 09:48:22;;;;;;;16.58;6.88;;;;;;;18.65;32.11;97489.81;5114892;28;20114;-64
2022/03/28 09:51:09;;;;;;;15.65;7.68;;;;;;;18.60;31.86;97486.59;5114711;28;20027;-64
2022/03/28 09:53:39;;;;;;;13.95;7.40;;;;;;;18.80;31.37;97490.75;5114268;28;20084;-64
2022/03/28 09:56:08;;;;;;;16.48;8.77;;;;;;;18.27;30.29;97478.59;5114550;28;20080;-64
2022/03/28 09:58:59;;;;;;;19.10;7.55;;;;;;;18.16;32.50;97473.91;5114510;28;20114;-65
2022/03/28 10:01:39;;;;;;;15.32;7.53;;;;;;;18.15;33.06;97466.88;5114424;28;20059;-64
2022/03/28 10:04:09;;;;;;;13.70;8.75;;;;;;;18.42;31.78;97474.25;5114485;28;20031;-64
2022/03/28 10:06:37;;;;;;;14.18;8.30;;;;;;;18.16;31.18;97465.97;5114557;28;20035;-64
2022/03/28 10:09:05;;;;;;;20.58;8.23;;;;;;;17.98;32.97;97459.84;5114467;28;20051;-64
2022/03/28 10:11:32;;;;;;;14.32;7.65;;;;;;;17.98;31.16;97449.25;5114474;28;20466;-65
2022/03/28 10:13:59;;;;;;;20.45;8.05;;;;;;;18.12;33.74;97447.69;5114298;28;20028;-65
2022/03/28 10:16:25;;;;;;;13.80;8.07;;;;;;;18.39;32.58;97440.00;5114413;28;20091;-64
2022/03/28 10:18:51;;;;;;;19.90;7.55;;;;;;;18.58;30.69;97432.81;5114226;28;20149;-64
2022/03/28 10:21:27;;;;;;;18.08;7.93;;;;;;;18.21;30.77;97433.91;5114164;28;20115;-64
2022/03/28 10:24:08;;;;;;;12.85;7.45;;;;;;;18.19;32.24;97431.34;5113883;28;20028;-64
2022/03/28 10:26:38;;;;;;;22.27;8.40;;;;;;;17.93;32.14;97428.31;5114146;28;20020;-64
2022/03/28 10:29:09;;;;;;;14.90;7.87;;;;;;;17.97;31.47;97422.88;5113997;28;20049;-64
2022/03/28 10:31:53;;;;;;;14.75;7.95;;;;;;;17.85;32.19;97413.78;5114088;28;20031;-64
2022/03/28 10:35:01;;;;;;;14.13;7.28;;;;;;;18.00;34.13;97412.13;5114032;28;20081;-64
2022/03/28 10:37:29;;;;;;;13.75;7.30;;;;;;;18.35;33.70;97404.03;5071422;28;20052;-64
2022/03/28 10:40:21;;;;;;;12.02;8.20;;;;;;;18.76;31.94;97397.34;5107638;28;20115;-64
2022/03/28 10:43:09;;;;;;;17.33;8.25;;;;;;;18.69;30.74;97402.13;5113849;28;20036;-64
2022/03/28 10:45:41;;;;;;;17.17;8.48;;;;;;;18.34;31.15;97389.09;5113791;28;20456;-64
2022/03/28 10:48:07;;;;;;;15.27;7.53;;;;;;;18.35;30.95;97382.84;5113864;28;20055;-64
2022/03/28 10:50:36;;;;;;;18.88;8.20;;;;;;;18.47;31.23;97380.44;5113730;28;20031;-64
2022/03/28 10:53:04;;;;;;;12.73;7.60;;;;;;;18.48;34.13;97379.50;5113671;28;20020;-64
2022/03/28 10:55:56;;;;;;;16.30;7.93;;;;;;;18.62;31.62;97368.09;5113688;28;20484;-64
2022/03/28 10:58:28;;;;;;;14.23;7.25;;;;;;;18.86;32.05;97357.88;5109007;28;20077;-64
2022/03/28 11:01:06;;;;;;;17.15;8.50;;;;;;;19.16;34.08;97357.03;5112227;28;20416;-64
2022/03/28 11:03:54;;;;;;;14.05;7.85;;;;;;;19.37;30.99;97356.69;5113397;28;20077;-64
2022/03/28 11:06:59;;;;;;;11.95;6.80;;;;;;;19.09;30.05;97349.53;5113594;28;20028;-64
2022/03/28 11:09:34;;;;;;;17.15;8.07;;;;;;;18.69;32.30;97356.22;5113539;28;20023;-64
2022/03/28 11:12:11;;;;;;;16.35;7.60;;;;;;;18.73;30.74;97347.16;5113520;28;20022;-64
2022/03/28 11:14:51;;;;;;;15.40;8.30;;;;;;;18.46;33.16;97342.53;5113423;28;20024;-64
2022/03/28 11:17:18;;;;;;;17.05;7.47;;;;;;;18.69;33.44;97335.00;5113410;28;20038;-63
2022/03/28 11:20:01;;;;;;;22.00;8.18;;;;;;;18.90;32.30;97329.41;5113119;28;20054;-64
2022/03/28 11:22:50;;;;;;;15.65;7.60;;;;;;;19.06;31.94;97327.53;5113368;28;20096;-64
2022/03/28 11:25:27;;;;;;;16.50;7.88;;;;;;;19.12;31.29;97323.72;5113314;28;20023;-64
2022/03/28 11:28:22;;;;;;;15.63;8.75;;;;;;;18.76;33.73;97315.19;5113348;28;21137;-64
2022/03/28 11:30:59;;;;;;;13.57;7.25;;;;;;;18.87;32.77;97306.56;5113149;28;20481;-64
2022/03/28 11:34:17;;;;;;;14.70;7.72;;;;;;;18.97;31.94;97306.03;5113253;28;20123;-64